Big Falls, Minnesota
Current Conditions -  °F | °C
As of 2:53 AM on Thursday 23 Oct 2014 (Local Time) from KFOZ Reporting Station
Overcast Overcast  
Wind Chill: 46°   Ceiling: 1600
Heat Index: 48°   Visibility: 7mi
Dew Point: 46°   Wind: 5mph
Humidity: 93%   Direction: 170°S
Pressure: 29.92"   Gusts: NA
Location:  48.19°N, 93.81°W
Report Text: KFOZ 230753Z AUTO 17004KT 7SM OVC016 09/08 A2992 RMK AO2
Loading
Personal Weather Stations






























Interactive Weather Map
Tropical Storm Tracking
New forecast layout! Learn more

10-Day Weather Forecast

Advertisements
Track Severe Weather on mobile